sensor_id;sensor_type;location;lat;lon;timestamp;P1;durP1;ratioP1;P2;durP2;ratioP2
76729;SDS011;65653;53.106;18.046;2023-08-31T00:00:55;9.30;;;5.60;;
76729;SDS011;65653;53.106;18.046;2023-08-31T00:03:30;13.30;;;7.70;;
76729;SDS011;65653;53.106;18.046;2023-08-31T00:05:57;12.00;;;7.00;;
76729;SDS011;65653;53.106;18.046;2023-08-31T00:08:27;13.50;;;7.40;;
76729;SDS011;65653;53.106;18.046;2023-08-31T00:10:56;13.10;;;7.00;;
76729;SDS011;65653;53.106;18.046;2023-08-31T00:13:24;12.00;;;7.50;;
76729;SDS011;65653;53.106;18.046;2023-08-31T00:15:50;13.00;;;7.50;;
76729;SDS011;65653;53.106;18.046;2023-08-31T00:18:17;12.30;;;7.90;;
76729;SDS011;65653;53.106;18.046;2023-08-31T00:20:44;16.30;;;8.60;;
76729;SDS011;65653;53.106;18.046;2023-08-31T00:23:10;14.70;;;9.00;;
76729;SDS011;65653;53.106;18.046;2023-08-31T00:25:37;14.50;;;8.20;;
76729;SDS011;65653;53.106;18.046;2023-08-31T00:28:03;16.00;;;8.40;;
76729;SDS011;65653;53.106;18.046;2023-08-31T00:30:31;16.20;;;8.50;;
76729;SDS011;65653;53.106;18.046;2023-08-31T00:32:58;15.00;;;9.50;;
76729;SDS011;65653;53.106;18.046;2023-08-31T00:35:27;14.00;;;8.40;;
76729;SDS011;65653;53.106;18.046;2023-08-31T00:37:55;16.80;;;8.70;;
76729;SDS011;65653;53.106;18.046;2023-08-31T00:40:25;14.00;;;9.80;;
76729;SDS011;65653;53.106;18.046;2023-08-31T00:42:51;16.10;;;9.60;;
76729;SDS011;65653;53.106;18.046;2023-08-31T00:45:18;13.20;;;8.50;;
76729;SDS011;65653;53.106;18.046;2023-08-31T00:47:45;15.60;;;9.00;;
76729;SDS011;65653;53.106;18.046;2023-08-31T00:50:14;16.90;;;9.00;;
76729;SDS011;65653;53.106;18.046;2023-08-31T00:52:41;17.30;;;10.00;;
76729;SDS011;65653;53.106;18.046;2023-08-31T00:55:10;20.40;;;9.70;;
76729;SDS011;65653;53.106;18.046;2023-08-31T00:57:37;19.20;;;10.10;;
76729;SDS011;65653;53.106;18.046;2023-08-31T01:00:04;17.30;;;9.50;;
76729;SDS011;65653;53.106;18.046;2023-08-31T01:08:19;21.20;;;11.60;;
76729;SDS011;65653;53.106;18.046;2023-08-31T01:11:06;22.40;;;11.10;;
76729;SDS011;65653;53.106;18.046;2023-08-31T01:13:33;18.30;;;11.20;;
76729;SDS011;65653;53.106;18.046;2023-08-31T01:16:03;20.60;;;11.60;;
76729;SDS011;65653;53.106;18.046;2023-08-31T01:18:33;20.70;;;10.00;;
76729;SDS011;65653;53.106;18.046;2023-08-31T01:21:05;21.70;;;11.10;;
76729;SDS011;65653;53.106;18.046;2023-08-31T01:23:45;19.50;;;11.10;;
76729;SDS011;65653;53.106;18.046;2023-08-31T01:26:12;16.60;;;10.20;;
76729;SDS011;65653;53.106;18.046;2023-08-31T01:28:39;18.40;;;10.10;;
76729;SDS011;65653;53.106;18.046;2023-08-31T01:31:06;17.70;;;9.80;;
76729;SDS011;65653;53.106;18.046;2023-08-31T01:33:32;17.40;;;9.60;;
76729;SDS011;65653;53.106;18.046;2023-08-31T01:35:59;19.60;;;10.30;;
76729;SDS011;65653;53.106;18.046;2023-08-31T01:38:30;20.20;;;10.20;;
76729;SDS011;65653;53.106;18.046;2023-08-31T01:41:03;15.80;;;8.70;;
76729;SDS011;65653;53.106;18.046;2023-08-31T01:43:33;16.90;;;9.40;;
76729;SDS011;65653;53.106;18.046;2023-08-31T01:46:01;17.40;;;9.40;;
76729;SDS011;65653;53.106;18.046;2023-08-31T01:48:28;15.50;;;8.90;;
76729;SDS011;65653;53.106;18.046;2023-08-31T01:50:54;18.80;;;9.60;;
76729;SDS011;65653;53.106;18.046;2023-08-31T01:53:21;17.90;;;9.80;;
76729;SDS011;65653;53.106;18.046;2023-08-31T01:55:48;15.40;;;8.90;;
76729;SDS011;65653;53.106;18.046;2023-08-31T01:58:15;20.80;;;10.50;;
76729;SDS011;65653;53.106;18.046;2023-08-31T02:00:41;14.70;;;8.90;;
76729;SDS011;65653;53.106;18.046;2023-08-31T02:03:08;12.50;;;8.10;;
76729;SDS011;65653;53.106;18.046;2023-08-31T02:05:34;14.70;;;8.50;;
76729;SDS011;65653;53.106;18.046;2023-08-31T02:08:01;16.00;;;9.00;;
76729;SDS011;65653;53.106;18.046;2023-08-31T02:10:27;14.30;;;8.20;;
76729;SDS011;65653;53.106;18.046;2023-08-31T02:12:56;16.20;;;9.20;;
76729;SDS011;65653;53.106;18.046;2023-08-31T02:15:22;15.80;;;9.20;;
76729;SDS011;65653;53.106;18.046;2023-08-31T02:17:49;15.30;;;8.20;;
76729;SDS011;65653;53.106;18.046;2023-08-31T02:20:15;14.80;;;9.20;;
76729;SDS011;65653;53.106;18.046;2023-08-31T02:22:42;13.90;;;8.50;;
76729;SDS011;65653;53.106;18.046;2023-08-31T02:25:09;13.90;;;8.30;;
76729;SDS011;65653;53.106;18.046;2023-08-31T02:27:35;13.00;;;8.30;;
76729;SDS011;65653;53.106;18.046;2023-08-31T02:30:01;12.30;;;7.50;;
76729;SDS011;65653;53.106;18.046;2023-08-31T02:32:31;13.60;;;8.30;;
76729;SDS011;65653;53.106;18.046;2023-08-31T02:34:57;16.90;;;9.10;;
76729;SDS011;65653;53.106;18.046;2023-08-31T02:37:24;17.40;;;9.00;;
76729;SDS011;65653;53.106;18.046;2023-08-31T02:39:50;16.10;;;9.10;;
76729;SDS011;65653;53.106;18.046;2023-08-31T02:42:17;15.70;;;8.30;;
76729;SDS011;65653;53.106;18.046;2023-08-31T02:44:43;16.80;;;9.10;;
76729;SDS011;65653;53.106;18.046;2023-08-31T02:47:10;17.60;;;8.80;;
76729;SDS011;65653;53.106;18.046;2023-08-31T02:49:37;16.20;;;9.30;;
76729;SDS011;65653;53.106;18.046;2023-08-31T02:52:04;18.00;;;9.00;;
76729;SDS011;65653;53.106;18.046;2023-08-31T02:54:31;14.10;;;8.40;;
76729;SDS011;65653;53.106;18.046;2023-08-31T02:56:57;11.40;;;7.80;;
76729;SDS011;65653;53.106;18.046;2023-08-31T02:59:23;14.90;;;9.10;;
76729;SDS011;65653;53.106;18.046;2023-08-31T03:01:50;16.70;;;7.90;;
76729;SDS011;65653;53.106;18.046;2023-08-31T03:04:16;14.10;;;8.50;;
76729;SDS011;65653;53.106;18.046;2023-08-31T03:06:43;11.40;;;7.80;;
76729;SDS011;65653;53.106;18.046;2023-08-31T03:09:10;13.90;;;7.90;;
76729;SDS011;65653;53.106;18.046;2023-08-31T03:11:36;17.00;;;8.30;;
76729;SDS011;65653;53.106;18.046;2023-08-31T03:14:03;15.50;;;8.40;;
76729;SDS011;65653;53.106;18.046;2023-08-31T03:16:29;13.90;;;8.50;;
76729;SDS011;65653;53.106;18.046;2023-08-31T03:18:56;13.50;;;8.00;;
76729;SDS011;65653;53.106;18.046;2023-08-31T03:21:22;17.10;;;8.90;;
76729;SDS011;65653;53.106;18.046;2023-08-31T03:23:49;16.80;;;9.00;;
76729;SDS011;65653;53.106;18.046;2023-08-31T03:26:15;13.70;;;7.70;;
76729;SDS011;65653;53.106;18.046;2023-08-31T03:28:42;12.00;;;8.10;;
76729;SDS011;65653;53.106;18.046;2023-08-31T03:31:08;13.30;;;7.80;;
76729;SDS011;65653;53.106;18.046;2023-08-31T03:33:35;10.90;;;7.70;;
76729;SDS011;65653;53.106;18.046;2023-08-31T03:36:02;14.00;;;7.80;;
76729;SDS011;65653;53.106;18.046;2023-08-31T03:38:33;12.00;;;8.20;;
76729;SDS011;65653;53.106;18.046;2023-08-31T03:41:04;13.40;;;8.10;;
76729;SDS011;65653;53.106;18.046;2023-08-31T03:43:31;13.70;;;8.20;;
76729;SDS011;65653;53.106;18.046;2023-08-31T03:45:58;15.30;;;8.60;;
76729;SDS011;65653;53.106;18.046;2023-08-31T03:48:25;14.70;;;8.70;;
76729;SDS011;65653;53.106;18.046;2023-08-31T03:50:52;12.00;;;8.00;;
76729;SDS011;65653;53.106;18.046;2023-08-31T03:53:19;11.30;;;8.00;;
76729;SDS011;65653;53.106;18.046;2023-08-31T03:55:45;12.10;;;7.20;;
76729;SDS011;65653;53.106;18.046;2023-08-31T03:58:12;12.30;;;8.40;;
76729;SDS011;65653;53.106;18.046;2023-08-31T04:00:39;12.40;;;8.10;;
76729;SDS011;65653;53.106;18.046;2023-08-31T04:03:06;15.70;;;8.00;;
76729;SDS011;65653;53.106;18.046;2023-08-31T04:05:33;12.40;;;6.90;;
76729;SDS011;65653;53.106;18.046;2023-08-31T04:10:30;12.60;;;8.40;;
76729;SDS011;65653;53.106;18.046;2023-08-31T04:12:58;14.00;;;8.50;;
76729;SDS011;65653;53.106;18.046;2023-08-31T04:15:27;14.70;;;8.70;;
76729;SDS011;65653;53.106;18.046;2023-08-31T04:17:53;15.10;;;7.50;;
76729;SDS011;65653;53.106;18.046;2023-08-31T04:20:21;11.70;;;7.90;;
76729;SDS011;65653;53.106;18.046;2023-08-31T04:22:48;15.10;;;7.60;;
76729;SDS011;65653;53.106;18.046;2023-08-31T04:25:15;15.80;;;8.10;;
76729;SDS011;65653;53.106;18.046;2023-08-31T04:27:42;11.50;;;7.30;;
76729;SDS011;65653;53.106;18.046;2023-08-31T04:30:09;12.60;;;8.00;;
76729;SDS011;65653;53.106;18.046;2023-08-31T04:32:38;12.50;;;7.50;;
76729;SDS011;65653;53.106;18.046;2023-08-31T04:35:05;13.90;;;7.20;;
76729;SDS011;65653;53.106;18.046;2023-08-31T04:37:32;11.10;;;7.00;;
76729;SDS011;65653;53.106;18.046;2023-08-31T04:39:59;9.90;;;7.10;;
76729;SDS011;65653;53.106;18.046;2023-08-31T04:42:25;9.30;;;7.30;;
76729;SDS011;65653;53.106;18.046;2023-08-31T04:44:52;9.70;;;7.20;;
76729;SDS011;65653;53.106;18.046;2023-08-31T04:47:19;12.70;;;7.00;;
76729;SDS011;65653;53.106;18.046;2023-08-31T04:49:45;10.40;;;7.20;;
76729;SDS011;65653;53.106;18.046;2023-08-31T04:52:11;13.80;;;7.50;;
76729;SDS011;65653;53.106;18.046;2023-08-31T04:54:38;11.40;;;7.40;;
76729;SDS011;65653;53.106;18.046;2023-08-31T04:57:04;11.30;;;6.80;;
76729;SDS011;65653;53.106;18.046;2023-08-31T04:59:33;17.00;;;7.90;;
76729;SDS011;65653;53.106;18.046;2023-08-31T05:02:00;10.60;;;6.60;;
76729;SDS011;65653;53.106;18.046;2023-08-31T05:04:26;9.50;;;7.70;;
76729;SDS011;65653;53.106;18.046;2023-08-31T05:06:54;9.70;;;7.50;;
76729;SDS011;65653;53.106;18.046;2023-08-31T05:09:21;10.30;;;7.00;;
76729;SDS011;65653;53.106;18.046;2023-08-31T05:11:47;10.40;;;7.80;;
76729;SDS011;65653;53.106;18.046;2023-08-31T05:14:14;12.60;;;7.80;;
76729;SDS011;65653;53.106;18.046;2023-08-31T05:16:40;10.70;;;7.60;;
76729;SDS011;65653;53.106;18.046;2023-08-31T05:19:07;11.50;;;7.50;;
76729;SDS011;65653;53.106;18.046;2023-08-31T05:21:33;13.30;;;7.70;;
76729;SDS011;65653;53.106;18.046;2023-08-31T05:24:00;11.80;;;6.90;;
76729;SDS011;65653;53.106;18.046;2023-08-31T05:26:26;9.60;;;7.10;;
76729;SDS011;65653;53.106;18.046;2023-08-31T05:28:53;11.20;;;7.80;;
76729;SDS011;65653;53.106;18.046;2023-08-31T05:31:19;10.20;;;7.20;;
76729;SDS011;65653;53.106;18.046;2023-08-31T05:33:46;14.00;;;8.20;;
76729;SDS011;65653;53.106;18.046;2023-08-31T05:36:12;16.10;;;8.70;;
76729;SDS011;65653;53.106;18.046;2023-08-31T05:38:38;10.80;;;7.40;;
76729;SDS011;65653;53.106;18.046;2023-08-31T05:41:08;10.40;;;6.60;;
76729;SDS011;65653;53.106;18.046;2023-08-31T05:43:36;10.90;;;7.30;;
76729;SDS011;65653;53.106;18.046;2023-08-31T05:46:06;13.70;;;7.40;;
76729;SDS011;65653;53.106;18.046;2023-08-31T05:48:35;9.50;;;6.40;;
76729;SDS011;65653;53.106;18.046;2023-08-31T05:51:02;18.60;;;10.00;;
76729;SDS011;65653;53.106;18.046;2023-08-31T05:53:30;8.30;;;6.70;;
76729;SDS011;65653;53.106;18.046;2023-08-31T05:55:57;10.40;;;5.60;;
76729;SDS011;65653;53.106;18.046;2023-08-31T05:58:31;9.50;;;6.90;;
76729;SDS011;65653;53.106;18.046;2023-08-31T06:00:59;8.60;;;6.10;;
76729;SDS011;65653;53.106;18.046;2023-08-31T06:03:26;11.60;;;7.40;;
76729;SDS011;65653;53.106;18.046;2023-08-31T06:05:54;10.00;;;6.40;;
76729;SDS011;65653;53.106;18.046;2023-08-31T06:08:20;10.70;;;6.60;;
76729;SDS011;65653;53.106;18.046;2023-08-31T06:10:47;11.20;;;7.30;;
76729;SDS011;65653;53.106;18.046;2023-08-31T06:13:13;10.90;;;6.80;;
76729;SDS011;65653;53.106;18.046;2023-08-31T06:15:40;9.00;;;6.90;;
76729;SDS011;65653;53.106;18.046;2023-08-31T06:18:06;12.70;;;8.10;;
76729;SDS011;65653;53.106;18.046;2023-08-31T06:20:33;9.90;;;6.70;;
76729;SDS011;65653;53.106;18.046;2023-08-31T06:22:59;11.90;;;7.90;;
76729;SDS011;65653;53.106;18.046;2023-08-31T06:25:26;10.40;;;6.80;;
76729;SDS011;65653;53.106;18.046;2023-08-31T06:27:52;13.70;;;7.40;;
76729;SDS011;65653;53.106;18.046;2023-08-31T06:30:19;9.40;;;7.20;;
76729;SDS011;65653;53.106;18.046;2023-08-31T06:32:46;9.60;;;6.90;;
76729;SDS011;65653;53.106;18.046;2023-08-31T06:35:14;11.00;;;7.70;;
76729;SDS011;65653;53.106;18.046;2023-08-31T06:37:44;12.30;;;8.00;;
76729;SDS011;65653;53.106;18.046;2023-08-31T06:40:11;12.80;;;8.00;;
76729;SDS011;65653;53.106;18.046;2023-08-31T06:42:38;9.50;;;7.00;;
76729;SDS011;65653;53.106;18.046;2023-08-31T06:45:06;13.20;;;7.50;;
76729;SDS011;65653;53.106;18.046;2023-08-31T06:47:34;10.30;;;7.50;;
76729;SDS011;65653;53.106;18.046;2023-08-31T06:50:00;9.50;;;6.80;;
76729;SDS011;65653;53.106;18.046;2023-08-31T06:52:27;12.80;;;7.50;;
76729;SDS011;65653;53.106;18.046;2023-08-31T06:54:54;9.70;;;6.60;;
76729;SDS011;65653;53.106;18.046;2023-08-31T06:57:22;8.50;;;6.90;;
76729;SDS011;65653;53.106;18.046;2023-08-31T06:59:50;8.70;;;7.00;;
76729;SDS011;65653;53.106;18.046;2023-08-31T07:02:16;8.10;;;6.60;;
76729;SDS011;65653;53.106;18.046;2023-08-31T07:04:45;9.70;;;6.40;;
76729;SDS011;65653;53.106;18.046;2023-08-31T07:07:12;9.70;;;6.20;;
76729;SDS011;65653;53.106;18.046;2023-08-31T07:09:45;9.70;;;5.90;;
76729;SDS011;65653;53.106;18.046;2023-08-31T07:12:12;6.80;;;5.60;;
76729;SDS011;65653;53.106;18.046;2023-08-31T07:14:39;8.40;;;5.70;;
76729;SDS011;65653;53.106;18.046;2023-08-31T07:17:05;6.80;;;5.30;;
76729;SDS011;65653;53.106;18.046;2023-08-31T07:19:35;9.00;;;5.30;;
76729;SDS011;65653;53.106;18.046;2023-08-31T07:22:02;6.40;;;4.10;;
76729;SDS011;65653;53.106;18.046;2023-08-31T07:24:30;7.30;;;4.40;;
76729;SDS011;65653;53.106;18.046;2023-08-31T07:26:56;5.00;;;4.10;;
76729;SDS011;65653;53.106;18.046;2023-08-31T07:29:23;5.50;;;3.60;;
76729;SDS011;65653;53.106;18.046;2023-08-31T07:31:49;6.40;;;3.90;;
76729;SDS011;65653;53.106;18.046;2023-08-31T07:34:16;5.40;;;3.10;;
76729;SDS011;65653;53.106;18.046;2023-08-31T07:36:42;4.10;;;3.50;;
76729;SDS011;65653;53.106;18.046;2023-08-31T07:39:10;5.10;;;3.80;;
76729;SDS011;65653;53.106;18.046;2023-08-31T07:41:36;6.50;;;3.40;;
76729;SDS011;65653;53.106;18.046;2023-08-31T07:44:02;3.10;;;2.80;;
76729;SDS011;65653;53.106;18.046;2023-08-31T07:46:29;4.80;;;2.70;;
76729;SDS011;65653;53.106;18.046;2023-08-31T07:48:56;2.80;;;2.50;;
76729;SDS011;65653;53.106;18.046;2023-08-31T07:51:22;2.80;;;1.90;;
76729;SDS011;65653;53.106;18.046;2023-08-31T07:53:49;3.40;;;2.40;;
76729;SDS011;65653;53.106;18.046;2023-08-31T07:56:16;2.30;;;2.10;;
76729;SDS011;65653;53.106;18.046;2023-08-31T07:58:42;3.90;;;2.80;;
76729;SDS011;65653;53.106;18.046;2023-08-31T08:01:09;4.20;;;2.00;;
76729;SDS011;65653;53.106;18.046;2023-08-31T08:03:35;2.60;;;1.70;;
76729;SDS011;65653;53.106;18.046;2023-08-31T08:06:01;4.30;;;2.30;;
76729;SDS011;65653;53.106;18.046;2023-08-31T08:08:31;2.70;;;1.70;;
76729;SDS011;65653;53.106;18.046;2023-08-31T08:10:58;2.70;;;2.00;;
76729;SDS011;65653;53.106;18.046;2023-08-31T08:13:25;2.50;;;1.90;;
76729;SDS011;65653;53.106;18.046;2023-08-31T08:15:52;3.30;;;1.80;;
76729;SDS011;65653;53.106;18.046;2023-08-31T08:18:18;3.90;;;2.10;;
76729;SDS011;65653;53.106;18.046;2023-08-31T08:20:48;2.00;;;1.60;;
76729;SDS011;65653;53.106;18.046;2023-08-31T08:23:16;2.30;;;1.50;;
76729;SDS011;65653;53.106;18.046;2023-08-31T08:25:43;1.70;;;1.50;;
76729;SDS011;65653;53.106;18.046;2023-08-31T08:28:09;1.70;;;1.50;;
76729;SDS011;65653;53.106;18.046;2023-08-31T08:30:36;1.80;;;1.60;;
76729;SDS011;65653;53.106;18.046;2023-08-31T08:33:02;1.60;;;1.40;;
76729;SDS011;65653;53.106;18.046;2023-08-31T08:35:29;2.20;;;1.60;;
76729;SDS011;65653;53.106;18.046;2023-08-31T08:37:56;2.20;;;1.70;;
76729;SDS011;65653;53.106;18.046;2023-08-31T08:40:22;2.80;;;1.70;;
76729;SDS011;65653;53.106;18.046;2023-08-31T08:42:50;3.00;;;1.90;;
76729;SDS011;65653;53.106;18.046;2023-08-31T08:45:19;3.40;;;1.50;;
76729;SDS011;65653;53.106;18.046;2023-08-31T08:47:46;2.40;;;1.80;;
76729;SDS011;65653;53.106;18.046;2023-08-31T08:50:13;1.50;;;1.40;;
76729;SDS011;65653;53.106;18.046;2023-08-31T08:52:40;3.40;;;2.00;;
76729;SDS011;65653;53.106;18.046;2023-08-31T08:55:08;3.50;;;2.20;;
76729;SDS011;65653;53.106;18.046;2023-08-31T08:57:35;4.20;;;2.30;;
76729;SDS011;65653;53.106;18.046;2023-08-31T09:00:02;2.60;;;2.00;;
76729;SDS011;65653;53.106;18.046;2023-08-31T09:02:29;3.40;;;3.10;;
76729;SDS011;65653;53.106;18.046;2023-08-31T09:04:56;3.80;;;3.10;;
76729;SDS011;65653;53.106;18.046;2023-08-31T09:07:23;3.80;;;3.40;;
76729;SDS011;65653;53.106;18.046;2023-08-31T09:09:51;3.50;;;3.20;;
76729;SDS011;65653;53.106;18.046;2023-08-31T09:12:21;4.90;;;3.90;;
76729;SDS011;65653;53.106;18.046;2023-08-31T09:14:56;3.80;;;3.40;;
76729;SDS011;65653;53.106;18.046;2023-08-31T09:17:32;4.50;;;3.60;;
76729;SDS011;65653;53.106;18.046;2023-08-31T09:20:04;5.70;;;3.10;;
76729;SDS011;65653;53.106;18.046;2023-08-31T09:22:32;5.40;;;4.30;;
76729;SDS011;65653;53.106;18.046;2023-08-31T09:25:00;5.20;;;4.80;;
76729;SDS011;65653;53.106;18.046;2023-08-31T09:27:26;4.90;;;4.50;;
76729;SDS011;65653;53.106;18.046;2023-08-31T09:29:56;5.60;;;5.00;;
76729;SDS011;65653;53.106;18.046;2023-08-31T09:32:22;6.00;;;4.30;;
76729;SDS011;65653;53.106;18.046;2023-08-31T09:34:49;4.70;;;4.30;;
76729;SDS011;65653;53.106;18.046;2023-08-31T09:37:15;4.20;;;3.70;;
76729;SDS011;65653;53.106;18.046;2023-08-31T09:39:42;4.70;;;4.00;;
76729;SDS011;65653;53.106;18.046;2023-08-31T09:42:09;4.40;;;4.10;;
76729;SDS011;65653;53.106;18.046;2023-08-31T09:44:39;3.60;;;3.30;;
76729;SDS011;65653;53.106;18.046;2023-08-31T09:47:06;5.00;;;4.40;;
76729;SDS011;65653;53.106;18.046;2023-08-31T09:49:33;4.30;;;3.90;;
76729;SDS011;65653;53.106;18.046;2023-08-31T09:52:02;4.40;;;3.40;;
76729;SDS011;65653;53.106;18.046;2023-08-31T09:54:31;4.30;;;3.90;;
76729;SDS011;65653;53.106;18.046;2023-08-31T09:57:01;4.30;;;3.70;;
76729;SDS011;65653;53.106;18.046;2023-08-31T09:59:29;7.30;;;3.90;;
76729;SDS011;65653;53.106;18.046;2023-08-31T10:01:55;4.50;;;4.00;;
76729;SDS011;65653;53.106;18.046;2023-08-31T10:04:22;7.00;;;4.30;;
76729;SDS011;65653;53.106;18.046;2023-08-31T10:06:49;4.90;;;4.50;;
76729;SDS011;65653;53.106;18.046;2023-08-31T10:09:18;5.30;;;4.60;;
76729;SDS011;65653;53.106;18.046;2023-08-31T10:11:45;4.70;;;3.70;;
76729;SDS011;65653;53.106;18.046;2023-08-31T10:14:13;6.90;;;3.90;;
76729;SDS011;65653;53.106;18.046;2023-08-31T10:16:43;4.50;;;4.20;;
76729;SDS011;65653;53.106;18.046;2023-08-31T10:19:10;4.40;;;4.00;;
76729;SDS011;65653;53.106;18.046;2023-08-31T10:21:36;5.60;;;5.00;;
76729;SDS011;65653;53.106;18.046;2023-08-31T10:24:05;5.20;;;4.70;;
76729;SDS011;65653;53.106;18.046;2023-08-31T10:26:32;5.80;;;4.90;;
76729;SDS011;65653;53.106;18.046;2023-08-31T10:28:59;5.50;;;4.60;;
76729;SDS011;65653;53.106;18.046;2023-08-31T10:31:31;8.20;;;5.50;;
76729;SDS011;65653;53.106;18.046;2023-08-31T10:34:03;7.50;;;4.90;;
76729;SDS011;65653;53.106;18.046;2023-08-31T10:39:11;6.40;;;5.30;;
76729;SDS011;65653;53.106;18.046;2023-08-31T10:41:51;10.30;;;5.90;;
76729;SDS011;65653;53.106;18.046;2023-08-31T10:46:50;7.70;;;7.00;;
76729;SDS011;65653;53.106;18.046;2023-08-31T10:49:18;7.10;;;6.50;;
76729;SDS011;65653;53.106;18.046;2023-08-31T10:51:48;6.30;;;5.70;;
76729;SDS011;65653;53.106;18.046;2023-08-31T10:54:26;6.30;;;4.50;;
76729;SDS011;65653;53.106;18.046;2023-08-31T10:59:25;4.30;;;3.70;;
76729;SDS011;65653;53.106;18.046;2023-08-31T11:01:59;5.60;;;4.40;;
76729;SDS011;65653;53.106;18.046;2023-08-31T11:04:31;6.30;;;5.50;;
76729;SDS011;65653;53.106;18.046;2023-08-31T11:07:30;5.40;;;4.90;;
76729;SDS011;65653;53.106;18.046;2023-08-31T11:12:45;8.30;;;6.30;;
76729;SDS011;65653;53.106;18.046;2023-08-31T11:15:14;9.30;;;7.20;;
76729;SDS011;65653;53.106;18.046;2023-08-31T11:17:43;9.10;;;8.10;;
76729;SDS011;65653;53.106;18.046;2023-08-31T11:20:17;10.60;;;9.50;;
76729;SDS011;65653;53.106;18.046;2023-08-31T11:22:49;12.70;;;11.50;;
76729;SDS011;65653;53.106;18.046;2023-08-31T11:25:17;12.30;;;10.00;;
76729;SDS011;65653;53.106;18.046;2023-08-31T11:30:27;10.60;;;9.40;;
76729;SDS011;65653;53.106;18.046;2023-08-31T11:33:01;8.00;;;6.70;;
76729;SDS011;65653;53.106;18.046;2023-08-31T11:35:33;7.40;;;6.70;;
76729;SDS011;65653;53.106;18.046;2023-08-31T11:38:04;7.50;;;6.70;;
76729;SDS011;65653;53.106;18.046;2023-08-31T11:40:30;7.20;;;5.30;;
76729;SDS011;65653;53.106;18.046;2023-08-31T11:42:58;6.10;;;5.20;;
76729;SDS011;65653;53.106;18.046;2023-08-31T11:45:29;6.50;;;5.00;;
76729;SDS011;65653;53.106;18.046;2023-08-31T11:47:58;5.20;;;4.60;;
76729;SDS011;65653;53.106;18.046;2023-08-31T11:50:25;4.60;;;4.20;;
76729;SDS011;65653;53.106;18.046;2023-08-31T11:52:55;5.30;;;4.10;;
76729;SDS011;65653;53.106;18.046;2023-08-31T11:55:21;4.30;;;3.90;;
76729;SDS011;65653;53.106;18.046;2023-08-31T11:57:52;4.90;;;4.10;;
76729;SDS011;65653;53.106;18.046;2023-08-31T12:00:21;4.50;;;4.10;;
76729;SDS011;65653;53.106;18.046;2023-08-31T12:02:58;3.60;;;3.30;;
76729;SDS011;65653;53.106;18.046;2023-08-31T12:05:26;3.40;;;3.10;;
76729;SDS011;65653;53.106;18.046;2023-08-31T12:07:56;3.30;;;3.00;;
76729;SDS011;65653;53.106;18.046;2023-08-31T12:10:29;3.30;;;3.00;;
76729;SDS011;65653;53.106;18.046;2023-08-31T12:13:07;3.20;;;2.50;;
76729;SDS011;65653;53.106;18.046;2023-08-31T12:15:39;3.60;;;2.80;;
76729;SDS011;65653;53.106;18.046;2023-08-31T12:18:10;2.70;;;2.40;;
76729;SDS011;65653;53.106;18.046;2023-08-31T12:20:46;4.00;;;2.70;;
76729;SDS011;65653;53.106;18.046;2023-08-31T12:23:17;2.80;;;2.60;;
76729;SDS011;65653;53.106;18.046;2023-08-31T12:28:19;2.50;;;2.30;;
76729;SDS011;65653;53.106;18.046;2023-08-31T12:30:51;2.60;;;2.40;;
76729;SDS011;65653;53.106;18.046;2023-08-31T12:33:19;2.50;;;2.30;;
76729;SDS011;65653;53.106;18.046;2023-08-31T12:35:50;3.00;;;2.70;;
76729;SDS011;65653;53.106;18.046;2023-08-31T12:38:16;2.60;;;2.40;;
76729;SDS011;65653;53.106;18.046;2023-08-31T12:40:46;3.10;;;2.10;;
76729;SDS011;65653;53.106;18.046;2023-08-31T12:43:13;2.70;;;2.50;;
76729;SDS011;65653;53.106;18.046;2023-08-31T12:45:46;2.00;;;1.80;;
76729;SDS011;65653;53.106;18.046;2023-08-31T12:48:13;2.50;;;2.30;;
76729;SDS011;65653;53.106;18.046;2023-08-31T12:50:39;2.50;;;2.30;;
76729;SDS011;65653;53.106;18.046;2023-08-31T12:53:06;2.30;;;2.10;;
76729;SDS011;65653;53.106;18.046;2023-08-31T12:55:33;2.60;;;2.40;;
76729;SDS011;65653;53.106;18.046;2023-08-31T12:58:01;3.30;;;2.30;;
76729;SDS011;65653;53.106;18.046;2023-08-31T13:00:27;2.30;;;2.10;;
76729;SDS011;65653;53.106;18.046;2023-08-31T13:02:54;3.60;;;2.20;;
76729;SDS011;65653;53.106;18.046;2023-08-31T13:05:22;4.70;;;2.00;;
76729;SDS011;65653;53.106;18.046;2023-08-31T13:07:49;2.10;;;1.80;;
76729;SDS011;65653;53.106;18.046;2023-08-31T13:10:16;2.00;;;1.80;;
76729;SDS011;65653;53.106;18.046;2023-08-31T13:12:43;2.80;;;1.90;;
76729;SDS011;65653;53.106;18.046;2023-08-31T13:15:10;3.00;;;2.10;;
76729;SDS011;65653;53.106;18.046;2023-08-31T13:17:37;1.80;;;1.70;;
76729;SDS011;65653;53.106;18.046;2023-08-31T13:20:04;2.10;;;1.80;;
76729;SDS011;65653;53.106;18.046;2023-08-31T13:22:31;2.40;;;1.80;;
76729;SDS011;65653;53.106;18.046;2023-08-31T13:24:57;2.10;;;1.60;;
76729;SDS011;65653;53.106;18.046;2023-08-31T13:27:24;2.00;;;1.70;;
76729;SDS011;65653;53.106;18.046;2023-08-31T13:29:51;3.10;;;2.00;;
76729;SDS011;65653;53.106;18.046;2023-08-31T13:32:18;2.30;;;2.20;;
76729;SDS011;65653;53.106;18.046;2023-08-31T13:34:45;3.00;;;2.20;;
76729;SDS011;65653;53.106;18.046;2023-08-31T13:37:12;2.40;;;2.00;;
76729;SDS011;65653;53.106;18.046;2023-08-31T13:39:38;2.90;;;2.20;;
76729;SDS011;65653;53.106;18.046;2023-08-31T13:42:06;2.50;;;2.20;;
76729;SDS011;65653;53.106;18.046;2023-08-31T13:44:33;2.40;;;2.20;;
76729;SDS011;65653;53.106;18.046;2023-08-31T13:47:00;3.70;;;2.30;;
76729;SDS011;65653;53.106;18.046;2023-08-31T13:49:26;3.10;;;2.20;;
76729;SDS011;65653;53.106;18.046;2023-08-31T13:51:53;2.20;;;1.90;;
76729;SDS011;65653;53.106;18.046;2023-08-31T13:54:19;2.10;;;1.80;;
76729;SDS011;65653;53.106;18.046;2023-08-31T13:56:45;2.60;;;2.10;;
76729;SDS011;65653;53.106;18.046;2023-08-31T13:59:12;2.70;;;2.40;;
76729;SDS011;65653;53.106;18.046;2023-08-31T14:01:38;2.20;;;1.90;;
76729;SDS011;65653;53.106;18.046;2023-08-31T14:04:05;3.30;;;2.30;;
76729;SDS011;65653;53.106;18.046;2023-08-31T14:06:32;2.90;;;2.50;;
76729;SDS011;65653;53.106;18.046;2023-08-31T14:08:58;5.10;;;2.60;;
76729;SDS011;65653;53.106;18.046;2023-08-31T14:11:25;4.50;;;3.10;;
76729;SDS011;65653;53.106;18.046;2023-08-31T14:14:05;5.10;;;3.60;;
76729;SDS011;65653;53.106;18.046;2023-08-31T14:16:35;4.60;;;2.60;;
76729;SDS011;65653;53.106;18.046;2023-08-31T14:19:05;2.60;;;2.10;;
76729;SDS011;65653;53.106;18.046;2023-08-31T14:21:32;3.20;;;1.60;;
76729;SDS011;65653;53.106;18.046;2023-08-31T14:23:58;4.00;;;1.50;;
76729;SDS011;65653;53.106;18.046;2023-08-31T14:26:25;1.80;;;1.20;;
76729;SDS011;65653;53.106;18.046;2023-08-31T14:28:51;2.60;;;1.40;;
76729;SDS011;65653;53.106;18.046;2023-08-31T14:31:18;2.10;;;1.10;;
76729;SDS011;65653;53.106;18.046;2023-08-31T14:33:45;1.40;;;1.20;;
76729;SDS011;65653;53.106;18.046;2023-08-31T14:36:13;3.30;;;1.20;;
76729;SDS011;65653;53.106;18.046;2023-08-31T14:38:41;1.50;;;1.20;;
76729;SDS011;65653;53.106;18.046;2023-08-31T14:41:08;1.30;;;1.10;;
76729;SDS011;65653;53.106;18.046;2023-08-31T14:43:34;1.10;;;0.90;;
76729;SDS011;65653;53.106;18.046;2023-08-31T14:46:01;6.10;;;1.30;;
76729;SDS011;65653;53.106;18.046;2023-08-31T14:48:27;3.40;;;1.00;;
76729;SDS011;65653;53.106;18.046;2023-08-31T14:50:54;2.60;;;1.20;;
76729;SDS011;65653;53.106;18.046;2023-08-31T14:53:21;1.90;;;1.30;;
76729;SDS011;65653;53.106;18.046;2023-08-31T14:55:49;1.90;;;1.30;;